createdAt,value
2023-02-08T06:40:54.083Z,9.90
2023-02-08T06:43:22.273Z,11.50
2023-02-08T06:45:51.069Z,17.10
2023-02-08T06:48:21.813Z,11.10
2023-02-08T06:50:57.399Z,11.20
2023-02-08T06:53:24.901Z,10.40
2023-02-08T06:55:52.837Z,11.30
2023-02-08T06:58:27.002Z,10.50
2023-02-08T07:01:00.350Z,10.60
2023-02-08T07:03:33.774Z,10.90
2023-02-08T07:06:13.945Z,11.70
2023-02-08T07:08:56.167Z,11.10
2023-02-08T07:11:30.958Z,11.30
2023-02-08T07:13:58.406Z,10.50
2023-02-08T07:16:26.922Z,11.20
2023-02-08T10:13:52.519Z,10.90
2023-02-08T10:17:13.574Z,13.20
2023-02-08T10:20:29.636Z,13.90
2023-02-08T10:23:40.564Z,11.50
2023-02-08T10:30:01.964Z,10.60
2023-02-08T10:33:35.380Z,14.40
2023-02-08T10:39:30.709Z,14.30
2023-02-08T10:42:04.473Z,15.30
2023-02-08T10:45:24.733Z,14.20
2023-02-08T10:48:06.206Z,14.60
2023-02-08T10:51:10.487Z,13.40
2023-02-08T10:53:51.290Z,13.80
2023-02-08T10:56:58.241Z,15.90
2023-02-08T10:59:35.257Z,14.40
2023-02-08T11:02:26.821Z,14.50
2023-02-08T11:05:47.340Z,14.80
2023-02-08T11:08:21.340Z,15.40
2023-02-08T11:11:11.661Z,15.50
2023-02-08T11:13:45.044Z,13.20
2023-02-08T11:16:21.995Z,14.50
2023-02-08T11:19:40.451Z,14.20
2023-02-08T11:22:17.829Z,15.40
2023-02-08T11:24:55.071Z,15.00
2023-02-08T11:27:53.184Z,14.90
2023-02-08T11:30:55.475Z,15.70
2023-02-08T11:33:39.089Z,14.30
2023-02-08T11:36:17.320Z,12.50
2023-02-08T11:38:50.540Z,14.90
2023-02-08T11:44:15.793Z,13.60
2023-02-08T11:46:47.749Z,13.80
2023-02-08T11:49:42.586Z,11.90
2023-02-08T11:52:48.319Z,13.80
2023-02-08T11:55:36.810Z,12.90
2023-02-08T11:58:18.009Z,13.40
2023-02-08T12:01:08.446Z,13.30
2023-02-08T12:03:40.502Z,12.90
2023-02-08T12:06:52.475Z,13.20
2023-02-08T12:09:58.713Z,14.90
2023-02-08T12:13:00.638Z,12.30
2023-02-08T12:16:27.419Z,12.30
2023-02-08T12:19:24.341Z,12.70
2023-02-08T12:22:36.824Z,13.30
2023-02-08T12:29:50.918Z,12.70
2023-02-08T12:33:22.214Z,11.90
2023-02-08T12:36:56.621Z,12.00
2023-02-08T12:40:15.482Z,11.50
2023-02-08T12:43:24.383Z,11.50
2023-02-08T12:46:28.285Z,10.30
2023-02-08T12:49:54.857Z,11.60
2023-02-08T12:52:50.771Z,10.30
2023-02-08T12:55:42.758Z,11.40
2023-02-08T12:59:01.780Z,10.70
2023-02-08T13:01:59.308Z,10.90
2023-02-08T13:04:56.406Z,11.30
2023-02-08T13:07:52.296Z,10.70
2023-02-08T13:10:32.154Z,11.10
2023-02-08T13:13:33.094Z,11.10
2023-02-08T13:16:11.191Z,10.10
2023-02-08T13:19:21.412Z,10.30
2023-02-08T13:21:54.211Z,10.60
2023-02-08T13:24:43.347Z,9.70
2023-02-08T13:27:29.341Z,10.20
2023-02-08T13:30:21.257Z,8.90
2023-02-08T13:32:56.274Z,9.40
2023-02-08T13:35:46.078Z,10.20
2023-02-08T13:38:53.003Z,9.40
2023-02-08T13:41:40.925Z,9.10
2023-02-08T13:44:36.705Z,9.70
2023-02-08T13:47:34.258Z,10.40
2023-02-08T13:50:37.182Z,10.70
2023-02-08T13:53:22.837Z,10.50
2023-02-08T13:56:05.647Z,10.20
2023-02-08T13:59:03.555Z,10.50
2023-02-08T14:01:40.620Z,8.90
2023-02-08T14:04:37.550Z,9.50
2023-02-08T14:07:38.879Z,9.80
2023-02-08T14:10:34.637Z,9.10
2023-02-08T14:13:30.821Z,10.20
2023-02-08T14:19:30.956Z,9.00
2023-02-08T14:22:13.795Z,10.40
2023-02-08T14:26:15.457Z,9.70
2023-02-08T14:29:24.037Z,8.20
2023-02-08T14:32:16.608Z,7.30
2023-02-08T14:35:26.870Z,7.50
2023-02-08T14:38:43.467Z,6.30
2023-02-08T14:42:02.770Z,8.00
2023-02-08T14:45:07.515Z,7.40
2023-02-08T14:48:30.258Z,6.60
2023-02-08T14:51:19.802Z,8.00
2023-02-08T14:54:21.213Z,7.60
2023-02-08T14:57:43.620Z,8.00
2023-02-08T15:00:34.072Z,7.90
2023-02-08T15:03:07.925Z,7.50
2023-02-08T15:06:18.289Z,8.30
2023-02-08T15:09:03.570Z,8.20
2023-02-08T15:12:11.523Z,10.00
2023-02-08T15:14:57.695Z,9.70
2023-02-08T15:17:48.122Z,9.50
2023-02-08T15:24:59.929Z,9.90
2023-02-08T15:27:34.484Z,10.10
2023-02-08T15:30:21.021Z,10.10
2023-02-08T15:32:53.697Z,13.20
2023-02-08T15:35:23.913Z,12.90
2023-02-08T15:37:58.967Z,10.40
2023-02-08T15:44:03.245Z,12.50
2023-02-08T15:46:32.388Z,11.40
2023-02-08T15:49:01.111Z,13.70
2023-02-08T15:52:08.342Z,11.80
2023-02-08T15:54:38.267Z,11.90
2023-02-08T15:57:36.193Z,12.80
2023-02-08T16:00:41.272Z,12.10
2023-02-08T16:03:27.512Z,11.50
2023-02-08T16:06:12.776Z,12.60
2023-02-08T16:08:53.542Z,13.00
2023-02-08T16:11:31.115Z,14.10
2023-02-08T16:14:50.670Z,14.30
